Terminal Aerodrome Forecast
Issued by NWS Huntsville, AL

Home | Current Version | Previous Version | Text Only | Print | Product List | Glossary On
Versions: 1 2 3 4 5 6 7 8 9 10 11 12 13 14 15 16 17 18 19 20
000
FTUS44 KHUN 200240 AAB
TAFMSL
TAF AMD
KMSL 200240Z 2003/2024 27005KT 4SM -RA BKN007
     FM200500 19007KT 3SM BR OVC007
     FM200700 20005KT 2SM BR OVC007
      TEMPO 2009/2013 1/2SM FG OVC005
     FM201300 19005KT 4SM BR OVC007
     FM201800 20011KT 6SM BR BKN020=

USA.gov is the U.S. government's official web portal to all federal, state and local government web resources and services.